createdAt,value
2022-10-19T01:28:41.277Z,102363.09
2022-10-19T04:54:22.949Z,102390.06
2022-10-19T04:56:29.280Z,102414.81
2022-10-19T04:59:18.626Z,102409.81
2022-10-19T05:02:04.370Z,102404.56
2022-10-19T05:04:52.119Z,102357.97
2022-10-19T05:07:49.400Z,102409.41
2022-10-19T05:10:47.669Z,102375.22
2022-10-19T05:13:35.500Z,102407.28
2022-10-19T05:16:22.835Z,102394.53
2022-10-19T05:19:15.413Z,102368.09
2022-10-19T05:22:14.137Z,102398.59
2022-10-19T05:24:59.693Z,102442.69
2022-10-19T05:27:45.813Z,102391.69
2022-10-19T05:30:39.947Z,102454.50
2022-10-19T05:33:34.186Z,102428.06
2022-10-19T05:36:27.862Z,102384.31
2022-10-19T05:39:17.980Z,102448.41
2022-10-19T05:46:18.300Z,102363.88
2022-10-19T05:49:05.225Z,102360.09
2022-10-19T05:51:53.205Z,102388.84
2022-10-19T05:54:43.522Z,102388.81
2022-10-19T05:57:38.107Z,102382.81
2022-10-19T06:00:27.427Z,102387.44
2022-10-19T06:03:16.603Z,102358.50
2022-10-19T06:06:09.241Z,102426.66
2022-10-19T06:09:06.579Z,102440.69
2022-10-19T06:11:55.756Z,102437.56
2022-10-19T06:14:51.868Z,102424.63
2022-10-19T06:17:41.240Z,102422.22
2022-10-19T06:20:30.528Z,102387.25
2022-10-19T06:23:23.745Z,102412.19
2022-10-19T06:26:12.002Z,102395.53
2022-10-19T06:29:00.428Z,102425.94
2022-10-19T06:31:46.596Z,102430.00
2022-10-19T06:34:32.144Z,102385.03
2022-10-19T06:37:18.071Z,102391.81
2022-10-19T06:40:07.108Z,102398.97
2022-10-19T06:42:55.427Z,102418.16
2022-10-19T06:45:41.172Z,102435.09
2022-10-19T06:48:26.665Z,102443.09
2022-10-19T06:51:13.628Z,102470.22
2022-10-19T06:53:59.026Z,102492.34
2022-10-19T06:56:44.886Z,102413.56
2022-10-19T06:59:30.322Z,102437.78
2022-10-19T07:02:15.777Z,102397.31
2022-10-19T07:05:04.674Z,102433.16
2022-10-19T07:07:52.600Z,102441.28
2022-10-19T07:10:38.059Z,102429.34
2022-10-19T07:13:24.041Z,102405.47
2022-10-19T07:16:20.799Z,102427.69
2022-10-19T07:19:06.822Z,102469.16
2022-10-19T07:21:52.862Z,102392.22
2022-10-19T07:24:38.592Z,102400.53
2022-10-19T07:27:26.470Z,102416.81
2022-10-19T07:30:11.955Z,102389.66
2022-10-19T07:32:59.460Z,102448.00
2022-10-19T07:35:45.936Z,102398.78
2022-10-19T07:38:32.177Z,102427.13
2022-10-19T07:41:19.953Z,102463.03
2022-10-19T07:44:05.920Z,102459.03
2022-10-19T07:46:51.657Z,102439.13
2022-10-19T07:49:37.333Z,102500.13
2022-10-19T07:52:22.880Z,102436.81
2022-10-19T07:55:08.690Z,102409.91
2022-10-19T07:57:55.603Z,102436.66
2022-10-19T08:00:41.151Z,102420.44
2022-10-19T08:06:32.640Z,102467.72
2022-10-19T08:09:39.930Z,102417.13
2022-10-19T08:12:23.478Z,102437.44
2022-10-19T08:15:09.381Z,102452.53
2022-10-19T08:17:55.029Z,102445.44
2022-10-19T08:20:41.819Z,102466.69
2022-10-19T08:23:27.457Z,102451.34
2022-10-19T08:26:12.779Z,102461.00
2022-10-19T08:51:04.223Z,102494.66
2022-10-19T08:53:57.113Z,102429.53
2022-10-19T09:04:53.356Z,102502.69
2022-10-19T09:07:45.716Z,102434.88
2022-10-19T09:10:37.221Z,102514.06
2022-10-19T09:13:29.237Z,102494.88
2022-10-19T09:16:23.374Z,102441.34
2022-10-19T09:19:26.279Z,102459.44
2022-10-19T09:22:29.373Z,102473.63
2022-10-19T09:25:20.056Z,102454.19
2022-10-19T09:28:38.815Z,102505.25
2022-10-19T09:31:31.861Z,102444.91
2022-10-19T09:34:29.441Z,102499.25
2022-10-19T09:37:23.311Z,102441.88
2022-10-19T09:40:20.058Z,102509.06
2022-10-19T09:43:20.427Z,102485.75
2022-10-19T09:46:20.122Z,102517.50
2022-10-19T09:49:05.917Z,102468.84
2022-10-19T09:51:52.598Z,102466.44
2022-10-19T09:54:39.194Z,102482.28
2022-10-19T09:57:24.586Z,102489.91
2022-10-19T11:24:59.021Z,102517.03
2022-10-19T11:27:59.750Z,102504.19
2022-10-19T11:35:53.789Z,102440.13
2022-10-19T12:22:24.127Z,102383.28
2022-10-19T12:52:50.519Z,102342.25
2022-10-19T12:55:46.800Z,102365.03
2022-10-19T13:33:49.286Z,102338.72
2022-10-19T14:02:50.837Z,102338.38
2022-10-19T14:05:56.165Z,102336.31
2022-10-19T14:09:47.332Z,102336.19
2022-10-19T14:19:53.995Z,102336.34
2022-10-19T14:23:14.030Z,102316.50
2022-10-19T14:26:17.374Z,102349.59
2022-10-19T14:33:14.112Z,102294.72
2022-10-19T14:36:19.037Z,102310.44
2022-10-19T14:42:37.323Z,102298.16
2022-10-19T14:49:02.312Z,102325.06
2022-10-19T14:51:59.538Z,102295.75
2022-10-19T14:54:56.972Z,102331.97
2022-10-19T15:11:55.145Z,102340.66
2022-10-19T15:21:42.820Z,102351.81
2022-10-19T15:24:51.350Z,102292.19
2022-10-19T15:27:50.208Z,102268.41
2022-10-19T15:30:46.328Z,102289.06
2022-10-19T15:34:04.220Z,102287.28
2022-10-19T15:37:48.794Z,102299.84
2022-10-19T15:41:13.968Z,102265.13
2022-10-19T15:45:07.391Z,102304.09
2022-10-19T15:59:02.472Z,102308.50
